Time;durP1;ratioP1;P1;durP2;ratioP2;P2;SDS_P1;SDS_P2;PMS_P1;PMS_P2;Temp;Humidity;BMP_temperature;BMP_pressure;BME280_temperature;BME280_humidity;BME280_pressure;Samples;Min_cycle;Max_cycle;Signal;HPM_P1;HPM_P2
2022/03/05 00:02:02;;;;;;;16.23;8.50;;;;;;;;;;5089552;28;20036;-70
2022/03/05 00:04:28;;;;;;;17.83;9.52;;;;;;;;;;5091836;28;20119;-71
2022/03/05 00:06:54;;;;;;;16.88;9.60;;;;;;;;;;5093112;28;20136;-70
2022/03/05 00:09:20;;;;;;;16.08;9.68;;;;;;;;;;5092916;28;20048;-70
2022/03/05 00:11:47;;;;;;;18.63;10.02;;;;;;;;;;5092413;28;20416;-70
2022/03/05 00:14:14;;;;;;;14.65;8.57;;;;;;;;;;5093511;28;20390;-70
2022/03/05 00:16:40;;;;;;;16.10;8.98;;;;;;;;;;5092926;28;20423;-70
2022/03/05 00:19:06;;;;;;;16.52;9.13;;;;;;;;;;5092512;28;20123;-70
2022/03/05 00:21:33;;;;;;;14.27;9.02;;;;;;;;;;5094603;28;20047;-70
2022/03/05 00:23:59;;;;;;;18.52;9.48;;;;;;;;;;5093160;28;20044;-70
2022/03/05 00:26:25;;;;;;;16.17;9.38;;;;;;;;;;5092025;28;20122;-70
2022/03/05 00:28:51;;;;;;;19.48;10.00;;;;;;;;;;5093972;28;20056;-70
2022/03/05 00:31:17;;;;;;;17.27;9.10;;;;;;;;;;5093959;28;20052;-70
2022/03/05 00:33:43;;;;;;;15.93;9.00;;;;;;;;;;5092133;28;20039;-70
2022/03/05 00:36:09;;;;;;;17.58;8.95;;;;;;;;;;5092529;28;20479;-70
2022/03/05 00:38:36;;;;;;;19.13;9.48;;;;;;;;;;5092719;28;20047;-70
2022/03/05 00:41:02;;;;;;;21.85;9.60;;;;;;;;;;5093016;28;20387;-70
2022/03/05 00:43:28;;;;;;;15.00;8.93;;;;;;;;;;5093966;28;20032;-70
2022/03/05 00:45:54;;;;;;;17.38;9.70;;;;;;;;;;5092514;28;20539;-70
2022/03/05 00:48:20;;;;;;;18.15;10.98;;;;;;;;;;5091975;28;20805;-70
2022/03/05 00:50:46;;;;;;;19.20;9.80;;;;;;;;;;5092489;28;20047;-70
2022/03/05 00:53:13;;;;;;;18.20;9.23;;;;;;;;;;5092500;28;20044;-70
2022/03/05 00:55:39;;;;;;;16.10;8.68;;;;;;;;;;5091633;28;20046;-70
2022/03/05 00:58:05;;;;;;;15.77;9.07;;;;;;;;;;5092332;28;20040;-70
2022/03/05 01:00:31;;;;;;;18.00;9.43;;;;;;;;;;5091964;28;20079;-70
2022/03/05 01:02:57;;;;;;;17.42;8.77;;;;;;;;;;5091569;28;20072;-70
2022/03/05 01:05:23;;;;;;;18.75;9.52;;;;;;;;;;5093249;28;20036;-70
2022/03/05 01:07:49;;;;;;;17.08;8.95;;;;;;;;;;5093195;28;20074;-69
2022/03/05 01:10:15;;;;;;;15.27;9.02;;;;;;;;;;5091468;28;20067;-69
2022/03/05 01:12:41;;;;;;;18.13;9.45;;;;;;;;;;5091831;28;20080;-69
2022/03/05 01:15:08;;;;;;;15.32;8.45;;;;;;;;;;5091064;28;20521;-69
2022/03/05 01:17:34;;;;;;;15.95;8.90;;;;;;;;;;5091008;28;20048;-69
2022/03/05 01:20:00;;;;;;;16.58;9.02;;;;;;;;;;5091752;28;20085;-69
2022/03/05 01:22:26;;;;;;;18.67;9.88;;;;;;;;;;5093341;28;20040;-69
2022/03/05 01:24:52;;;;;;;20.42;9.40;;;;;;;;;;5090968;28;20054;-69
2022/03/05 01:27:18;;;;;;;21.52;9.40;;;;;;;;;;5093005;28;20047;-69
2022/03/05 01:29:45;;;;;;;19.17;9.30;;;;;;;;;;5091400;28;20579;-69
2022/03/05 01:32:11;;;;;;;18.05;9.13;;;;;;;;;;5090839;28;20059;-69
2022/03/05 01:34:37;;;;;;;15.65;9.20;;;;;;;;;;5091623;28;20036;-69
2022/03/05 01:37:03;;;;;;;17.02;9.25;;;;;;;;;;5091371;28;20044;-69
2022/03/05 01:39:29;;;;;;;17.83;8.75;;;;;;;;;;5090813;28;20063;-69
2022/03/05 01:41:56;;;;;;;19.17;9.60;;;;;;;;;;5092876;28;20069;-69
2022/03/05 01:44:23;;;;;;;17.50;9.23;;;;;;;;;;5082865;28;20044;-69
2022/03/05 01:46:49;;;;;;;17.52;8.80;;;;;;;;;;5070343;28;20048;-69
2022/03/05 01:49:15;;;;;;;17.73;8.85;;;;;;;;;;5086539;28;20040;-69
2022/03/05 01:51:43;;;;;;;17.20;8.95;;;;;;;;;;5091318;28;20577;-69
2022/03/05 01:54:09;;;;;;;16.98;9.18;;;;;;;;;;5090993;28;20040;-69
2022/03/05 01:56:35;;;;;;;15.75;8.63;;;;;;;;;;5091031;28;20622;-70
2022/03/05 01:59:01;;;;;;;19.40;8.90;;;;;;;;;;5092389;28;20040;-70
2022/03/05 02:01:28;;;;;;;17.40;8.88;;;;;;;;;;5091806;28;20047;-70
2022/03/05 02:03:54;;;;;;;19.08;9.25;;;;;;;;;;5090954;28;20076;-70
2022/03/05 02:06:21;;;;;;;18.42;9.20;;;;;;;;;;5092186;28;20689;-70
2022/03/05 02:08:47;;;;;;;19.38;9.02;;;;;;;;;;5089999;28;20028;-70
2022/03/05 02:11:13;;;;;;;18.13;8.88;;;;;;;;;;5090883;28;20052;-70
2022/03/05 02:13:41;;;;;;;14.15;8.02;;;;;;;;;;5092220;28;20517;-70
2022/03/05 02:16:07;;;;;;;14.43;8.05;;;;;;;;;;5090111;28;20424;-70
2022/03/05 02:18:33;;;;;;;16.42;8.27;;;;;;;;;;5090661;28;20071;-70
2022/03/05 02:20:59;;;;;;;17.67;9.65;;;;;;;;;;5090558;28;20490;-70
2022/03/05 02:23:25;;;;;;;15.90;8.52;;;;;;;;;;5092268;28;20540;-70
2022/03/05 02:25:52;;;;;;;13.75;7.20;;;;;;;;;;5072872;28;20040;-70
2022/03/05 02:28:19;;;;;;;14.48;8.35;;;;;;;;;;5089581;28;20056;-70
2022/03/05 02:30:45;;;;;;;15.10;8.40;;;;;;;;;;5090530;28;20075;-70
2022/03/05 02:33:11;;;;;;;15.18;8.15;;;;;;;;;;5089661;28;20047;-70
2022/03/05 02:35:37;;;;;;;15.65;7.70;;;;;;;;;;5090305;28;20040;-70
2022/03/05 02:38:03;;;;;;;14.10;7.80;;;;;;;;;;5091597;28;20039;-70
2022/03/05 02:40:29;;;;;;;13.88;8.43;;;;;;;;;;5089708;28;20039;-70
2022/03/05 02:42:55;;;;;;;14.73;7.53;;;;;;;;;;5090164;28;20487;-70
2022/03/05 02:45:21;;;;;;;14.07;6.97;;;;;;;;;;5089904;28;20040;-70
2022/03/05 02:47:48;;;;;;;14.20;7.50;;;;;;;;;;5089454;28;20375;-70
2022/03/05 02:50:14;;;;;;;14.88;7.75;;;;;;;;;;5090338;28;20040;-70
2022/03/05 02:52:40;;;;;;;14.27;7.57;;;;;;;;;;5090005;28;20048;-70
2022/03/05 02:55:07;;;;;;;12.80;6.78;;;;;;;;;;5089811;28;20521;-70
2022/03/05 02:57:33;;;;;;;12.60;6.72;;;;;;;;;;5090302;28;20040;-70
2022/03/05 02:59:59;;;;;;;15.90;6.72;;;;;;;;;;5091430;28;20375;-70
2022/03/05 03:02:26;;;;;;;13.80;6.78;;;;;;;;;;5089516;28;20684;-70
2022/03/05 03:04:52;;;;;;;12.70;7.05;;;;;;;;;;5089915;28;20039;-70
2022/03/05 03:07:18;;;;;;;14.05;7.00;;;;;;;;;;5090212;28;20051;-70
2022/03/05 03:09:44;;;;;;;14.48;7.30;;;;;;;;;;5089287;28;20048;-70
2022/03/05 03:12:10;;;;;;;13.75;7.10;;;;;;;;;;5089838;28;20152;-70
2022/03/05 03:14:36;;;;;;;13.60;7.10;;;;;;;;;;5091262;28;20389;-70
2022/03/05 03:17:02;;;;;;;14.02;6.72;;;;;;;;;;5089116;28;20039;-69
2022/03/05 03:19:28;;;;;;;12.70;6.20;;;;;;;;;;5090144;28;20105;-69
2022/03/05 03:21:54;;;;;;;12.15;6.68;;;;;;;;;;5089765;28;20052;-69
2022/03/05 03:24:20;;;;;;;15.00;7.47;;;;;;;;;;5089221;28;20036;-69
2022/03/05 03:26:46;;;;;;;14.90;7.20;;;;;;;;;;5089992;28;20534;-69
2022/03/05 03:29:13;;;;;;;14.27;7.20;;;;;;;;;;5089430;28;20135;-70
2022/03/05 03:31:39;;;;;;;11.70;6.47;;;;;;;;;;5089338;28;20036;-70
2022/03/05 03:34:05;;;;;;;12.27;6.40;;;;;;;;;;5089900;28;20040;-69
2022/03/05 03:36:31;;;;;;;15.05;7.28;;;;;;;;;;5089608;28;20056;-69
2022/03/05 03:38:57;;;;;;;12.45;6.70;;;;;;;;;;5091646;28;20485;-69
2022/03/05 03:41:23;;;;;;;14.60;7.05;;;;;;;;;;5093512;28;20430;-69
2022/03/05 03:43:49;;;;;;;16.10;6.70;;;;;;;;;;5093530;28;20036;-69
2022/03/05 03:46:15;;;;;;;18.80;7.35;;;;;;;;;;5092718;28;20374;-70
2022/03/05 03:48:41;;;;;;;12.60;6.85;;;;;;;;;;5093419;28;20044;-70
2022/03/05 03:51:07;;;;;;;15.82;7.15;;;;;;;;;;5094930;28;20040;-70
2022/03/05 03:53:33;;;;;;;13.20;6.65;;;;;;;;;;5092849;28;20101;-70
2022/03/05 03:55:59;;;;;;;16.73;7.63;;;;;;;;;;5093579;28;20131;-70
2022/03/05 03:58:25;;;;;;;12.82;6.70;;;;;;;;;;5093883;28;20070;-70
2022/03/05 04:00:51;;;;;;;15.10;6.88;;;;;;;;;;5092431;28;20051;-70
2022/03/05 04:03:17;;;;;;;14.75;7.68;;;;;;;;;;5093441;28;20506;-70
2022/03/05 04:05:43;;;;;;;12.82;7.28;;;;;;;;;;5094625;28;20062;-70
2022/03/05 04:10:54;;;;;;;14.82;7.25;;;;;;;;;;5093126;28;20078;-70
2022/03/05 04:13:20;;;;;;;18.35;7.72;;;;;;;;;;5093167;28;20044;-70
2022/03/05 04:15:46;;;;;;;15.70;7.07;;;;;;;;;;5092767;28;20127;-70
2022/03/05 04:18:13;;;;;;;15.13;6.70;;;;;;;;;;5094521;28;20119;-70
2022/03/05 04:20:39;;;;;;;15.75;7.05;;;;;;;;;;5092731;28;20093;-69
2022/03/05 04:23:05;;;;;;;13.18;7.18;;;;;;;;;;5092777;28;20402;-69
2022/03/05 04:25:32;;;;;;;16.40;7.65;;;;;;;;;;5094158;28;20123;-69
2022/03/05 04:27:57;;;;;;;14.80;6.60;;;;;;;;;;5092574;28;20048;-69
2022/03/05 04:30:24;;;;;;;17.38;7.82;;;;;;;;;;5092218;28;20723;-69
2022/03/05 04:32:50;;;;;;;16.67;7.25;;;;;;;;;;5092884;28;20740;-69
2022/03/05 04:35:16;;;;;;;21.42;7.65;;;;;;;;;;5094273;28;20533;-69
2022/03/05 04:37:42;;;;;;;17.60;7.72;;;;;;;;;;5091821;28;20067;-69
2022/03/05 04:40:09;;;;;;;16.55;7.03;;;;;;;;;;5092743;28;20524;-69
2022/03/05 04:42:36;;;;;;;15.02;7.35;;;;;;;;;;5092660;28;20486;-69
2022/03/05 04:45:02;;;;;;;14.50;7.72;;;;;;;;;;5074836;28;20123;-69
2022/03/05 04:47:28;;;;;;;15.07;7.13;;;;;;;;;;5092552;28;20069;-69
2022/03/05 04:49:54;;;;;;;16.63;7.15;;;;;;;;;;5091207;28;20039;-69
2022/03/05 04:52:20;;;;;;;16.33;7.50;;;;;;;;;;5091668;28;20193;-69
2022/03/05 04:54:46;;;;;;;15.98;7.45;;;;;;;;;;5092738;28;20119;-69
2022/03/05 04:57:13;;;;;;;18.73;7.78;;;;;;;;;;5075117;28;20036;-69
2022/03/05 04:59:39;;;;;;;16.48;7.63;;;;;;;;;;5091991;28;20358;-69
2022/03/05 05:02:05;;;;;;;15.63;7.15;;;;;;;;;;5092021;28;20036;-69
2022/03/05 05:04:31;;;;;;;15.57;7.47;;;;;;;;;;5092085;28;20058;-69
2022/03/05 05:06:57;;;;;;;14.45;7.00;;;;;;;;;;5074611;28;20070;-69
2022/03/05 05:09:24;;;;;;;18.48;7.13;;;;;;;;;;5075102;28;20032;-69
2022/03/05 05:11:50;;;;;;;16.95;6.53;;;;;;;;;;5093639;28;20040;-69
2022/03/05 05:14:16;;;;;;;14.40;7.70;;;;;;;;;;5091365;28;20098;-70
2022/03/05 05:16:42;;;;;;;16.70;7.88;;;;;;;;;;5092057;28;20067;-70
2022/03/05 05:21:53;;;;;;;16.38;7.30;;;;;;;;;;5092461;28;20657;-69
2022/03/05 05:24:19;;;;;;;11.65;6.65;;;;;;;;;;5091606;28;20032;-70
2022/03/05 05:26:45;;;;;;;17.20;8.07;;;;;;;;;;5092815;28;20075;-70
2022/03/05 05:29:12;;;;;;;16.83;7.70;;;;;;;;;;5092105;28;20048;-70
2022/03/05 05:31:38;;;;;;;17.58;7.38;;;;;;;;;;5093159;28;20498;-70
2022/03/05 05:34:04;;;;;;;14.38;7.20;;;;;;;;;;5091537;28;20040;-70
2022/03/05 05:36:30;;;;;;;15.23;6.88;;;;;;;;;;5090622;28;20127;-70
2022/03/05 05:38:56;;;;;;;15.75;7.20;;;;;;;;;;5091486;28;20040;-70
2022/03/05 05:41:22;;;;;;;15.52;6.72;;;;;;;;;;5091128;28;20051;-70
2022/03/05 05:43:48;;;;;;;15.18;6.95;;;;;;;;;;5090928;28;20627;-70
2022/03/05 05:46:14;;;;;;;14.73;7.13;;;;;;;;;;5091022;28;20114;-70
2022/03/05 05:48:40;;;;;;;15.60;7.68;;;;;;;;;;5092480;28;20044;-70
2022/03/05 05:51:06;;;;;;;16.38;7.45;;;;;;;;;;5091761;28;20109;-70
2022/03/05 05:53:32;;;;;;;16.30;7.82;;;;;;;;;;5091134;28;20044;-70
2022/03/05 05:55:58;;;;;;;14.85;7.13;;;;;;;;;;5092406;28;20461;-70
2022/03/05 05:58:24;;;;;;;18.77;7.75;;;;;;;;;;5090424;28;20047;-69
2022/03/05 06:00:51;;;;;;;16.52;7.30;;;;;;;;;;5073733;28;20044;-69
2022/03/05 06:03:18;;;;;;;15.57;7.15;;;;;;;;;;5092475;28;20043;-70
2022/03/05 06:05:44;;;;;;;16.30;7.97;;;;;;;;;;5090050;28;20040;-70
2022/03/05 06:08:10;;;;;;;15.02;7.47;;;;;;;;;;5091004;28;20054;-70
2022/03/05 06:10:36;;;;;;;22.38;7.32;;;;;;;;;;5090604;28;20440;-70
2022/03/05 06:13:02;;;;;;;13.63;6.90;;;;;;;;;;5090264;28;20097;-70
2022/03/05 06:15:28;;;;;;;16.27;7.57;;;;;;;;;;5090799;28;20040;-70
2022/03/05 06:17:57;;;;;;;13.73;6.70;;;;;;;;;;5090963;28;20474;-70
2022/03/05 06:20:23;;;;;;;13.50;7.07;;;;;;;;;;5089976;28;20036;-70
2022/03/05 06:22:49;;;;;;;15.18;6.55;;;;;;;;;;5090762;28;20067;-70
2022/03/05 06:25:19;;;;;;;12.20;6.25;;;;;;;;;;5090648;28;20546;-70
2022/03/05 06:27:45;;;;;;;14.30;6.50;;;;;;;;;;5089867;28;20036;-70
2022/03/05 06:30:12;;;;;;;12.65;6.18;;;;;;;;;;5090261;28;20132;-70
2022/03/05 06:32:38;;;;;;;14.15;6.70;;;;;;;;;;5090370;28;20052;-70
2022/03/05 06:35:05;;;;;;;15.23;7.00;;;;;;;;;;5090234;28;20383;-70
2022/03/05 06:37:31;;;;;;;11.60;5.60;;;;;;;;;;5090256;28;20632;-70
2022/03/05 06:39:57;;;;;;;14.07;6.40;;;;;;;;;;5090380;28;20130;-70
2022/03/05 06:42:23;;;;;;;12.52;6.72;;;;;;;;;;5090122;28;20517;-70
2022/03/05 06:44:50;;;;;;;13.40;6.40;;;;;;;;;;5072714;28;20055;-70
2022/03/05 06:47:16;;;;;;;14.80;5.97;;;;;;;;;;5090218;28;20127;-70
2022/03/05 06:49:42;;;;;;;14.27;6.10;;;;;;;;;;5090046;28;20043;-70
2022/03/05 06:52:10;;;;;;;13.27;7.10;;;;;;;;;;5090941;28;20172;-70
2022/03/05 06:54:37;;;;;;;12.25;6.13;;;;;;;;;;5090202;28;20517;-70
2022/03/05 06:57:03;;;;;;;14.07;6.35;;;;;;;;;;5089988;28;20123;-70
2022/03/05 06:59:29;;;;;;;14.70;6.43;;;;;;;;;;5089692;28;20384;-70
2022/03/05 07:01:55;;;;;;;10.57;5.95;;;;;;;;;;5090108;28;20056;-70
2022/03/05 07:04:21;;;;;;;13.85;6.70;;;;;;;;;;5090171;28;20410;-70
2022/03/05 07:06:47;;;;;;;15.23;6.72;;;;;;;;;;5090829;28;20470;-70
2022/03/05 07:09:14;;;;;;;12.20;6.18;;;;;;;;;;5089761;28;20036;-70
2022/03/05 07:11:40;;;;;;;12.40;6.45;;;;;;;;;;5090241;28;20043;-70
2022/03/05 07:14:07;;;;;;;16.60;7.32;;;;;;;;;;5091986;28;20474;-70
2022/03/05 07:16:33;;;;;;;12.88;6.97;;;;;;;;;;5094186;28;20067;-70
2022/03/05 07:18:59;;;;;;;13.63;6.72;;;;;;;;;;5075484;28;20044;-70
2022/03/05 07:21:25;;;;;;;15.70;6.70;;;;;;;;;;5080379;28;20048;-70
2022/03/05 07:23:51;;;;;;;14.40;6.70;;;;;;;;;;5094148;28;20058;-70
2022/03/05 07:26:17;;;;;;;14.82;6.47;;;;;;;;;;5093892;28;20044;-70
2022/03/05 07:28:44;;;;;;;15.88;7.78;;;;;;;;;;5092764;28;20398;-70
2022/03/05 07:31:11;;;;;;;16.70;7.10;;;;;;;;;;5094069;28;20121;-69
2022/03/05 07:33:37;;;;;;;12.68;7.40;;;;;;;;;;5094004;28;20044;-69
2022/03/05 07:36:06;;;;;;;12.98;6.95;;;;;;;;;;5093147;28;20126;-70
2022/03/05 07:38:33;;;;;;;16.02;7.80;;;;;;;;;;5076633;28;20036;-70
2022/03/05 07:40:59;;;;;;;15.60;7.53;;;;;;;;;;5095118;28;20039;-70
2022/03/05 07:43:25;;;;;;;19.55;8.10;;;;;;;;;;5094668;28;20422;-69
2022/03/05 07:45:51;;;;;;;16.75;7.72;;;;;;;;;;5094813;28;20048;-69
2022/03/05 07:48:21;;;;;;;15.52;7.43;;;;;;;;;;5095147;28;20116;-69
2022/03/05 07:50:51;;;;;;;13.77;7.40;;;;;;;;;;5093136;28;20541;-69
2022/03/05 07:53:17;;;;;;;17.67;7.43;;;;;;;;;;5094545;28;20466;-69
2022/03/05 07:55:43;;;;;;;20.08;8.63;;;;;;;;;;5093295;28;20056;-69
2022/03/05 07:58:09;;;;;;;16.40;8.20;;;;;;;;;;5092820;28;20039;-69
2022/03/05 08:00:35;;;;;;;18.33;8.05;;;;;;;;;;5095062;28;20114;-70
2022/03/05 08:03:01;;;;;;;18.00;8.50;;;;;;;;;;5093127;28;20044;-70
2022/03/05 08:05:27;;;;;;;14.95;7.80;;;;;;;;;;5092502;28;20077;-70
2022/03/05 08:07:57;;;;;;;17.25;8.70;;;;;;;;;;5093022;28;20055;-69
2022/03/05 08:10:23;;;;;;;17.02;7.97;;;;;;;;;;5092914;28;20120;-69
2022/03/05 08:12:49;;;;;;;18.90;8.80;;;;;;;;;;5092122;28;20370;-70
2022/03/05 08:15:15;;;;;;;17.17;8.30;;;;;;;;;;5092741;28;20036;-70
2022/03/05 08:17:54;;;;;;;19.27;9.32;;;;;;;;;;5092896;28;20113;-69
2022/03/05 08:20:21;;;;;;;15.20;8.38;;;;;;;;;;5093719;28;20043;-69
2022/03/05 08:22:47;;;;;;;21.67;9.57;;;;;;;;;;5092661;28;20529;-70
2022/03/05 08:25:13;;;;;;;18.88;9.43;;;;;;;;;;5092666;28;20064;-69
2022/03/05 08:27:39;;;;;;;20.80;9.60;;;;;;;;;;5092256;28;20040;-69
2022/03/05 08:30:06;;;;;;;21.58;8.60;;;;;;;;;;5092535;28;20044;-69
2022/03/05 08:32:32;;;;;;;20.52;9.00;;;;;;;;;;5092957;28;20462;-69
2022/03/05 08:34:59;;;;;;;20.90;9.38;;;;;;;;;;5092203;28;20044;-69
2022/03/05 08:37:25;;;;;;;19.58;10.00;;;;;;;;;;5092437;28;20383;-69
2022/03/05 08:39:51;;;;;;;19.00;9.43;;;;;;;;;;5092787;28;20113;-69
2022/03/05 08:42:17;;;;;;;23.13;10.05;;;;;;;;;;5091769;28;20062;-69
2022/03/05 08:44:43;;;;;;;19.95;9.45;;;;;;;;;;5092507;28;20149;-69
2022/03/05 08:47:09;;;;;;;20.40;9.80;;;;;;;;;;5093786;28;20044;-69
2022/03/05 08:49:36;;;;;;;23.13;10.50;;;;;;;;;;5091566;28;20100;-69
2022/03/05 08:52:03;;;;;;;20.88;9.57;;;;;;;;;;5092275;28;20040;-69
2022/03/05 08:54:29;;;;;;;22.58;10.35;;;;;;;;;;5093525;28;20040;-69
2022/03/05 08:56:55;;;;;;;21.08;9.82;;;;;;;;;;5091536;28;20044;-70
2022/03/05 08:59:21;;;;;;;22.85;10.63;;;;;;;;;;5092582;28;20060;-69
2022/03/05 09:01:47;;;;;;;23.77;10.05;;;;;;;;;;5091789;28;20044;-69
2022/03/05 09:04:13;;;;;;;20.30;10.48;;;;;;;;;;5092817;28;20044;-69
2022/03/05 09:06:40;;;;;;;22.30;10.32;;;;;;;;;;5092085;28;20173;-69
2022/03/05 09:09:06;;;;;;;23.83;10.95;;;;;;;;;;5092149;28;20055;-69
2022/03/05 09:11:34;;;;;;;22.83;11.07;;;;;;;;;;5092869;28;20049;-69
2022/03/05 09:14:00;;;;;;;24.10;11.35;;;;;;;;;;5093289;28;20058;-69
2022/03/05 09:16:26;;;;;;;21.65;10.77;;;;;;;;;;5092178;28;20139;-69
2022/03/05 09:18:52;;;;;;;25.77;11.23;;;;;;;;;;5091072;28;20051;-69
2022/03/05 09:21:18;;;;;;;29.55;11.50;;;;;;;;;;5092941;28;20474;-69
2022/03/05 09:23:44;;;;;;;23.42;11.43;;;;;;;;;;5091944;28;20142;-69
2022/03/05 09:26:10;;;;;;;25.90;11.63;;;;;;;;;;5082822;28;20049;-69
2022/03/05 09:28:36;;;;;;;25.60;12.25;;;;;;;;;;5072710;28;20048;-69
2022/03/05 09:31:03;;;;;;;23.35;12.02;;;;;;;;;;5088179;28;20082;-69
2022/03/05 09:33:29;;;;;;;23.88;11.40;;;;;;;;;;5074244;28;20072;-70
2022/03/05 09:35:55;;;;;;;29.02;12.38;;;;;;;;;;5092202;28;20047;-70
2022/03/05 09:38:21;;;;;;;25.67;12.23;;;;;;;;;;5091353;28;20047;-70
2022/03/05 09:40:47;;;;;;;24.55;11.32;;;;;;;;;;5091061;28;20044;-70
2022/03/05 09:43:13;;;;;;;23.77;11.50;;;;;;;;;;5090989;28;20118;-70
2022/03/05 09:45:39;;;;;;;22.52;12.13;;;;;;;;;;5090750;28;20461;-70
2022/03/05 09:48:06;;;;;;;23.45;11.98;;;;;;;;;;5090635;28;20043;-70
2022/03/05 09:50:32;;;;;;;27.67;12.10;;;;;;;;;;5091114;28;20051;-70
2022/03/05 09:52:58;;;;;;;27.05;12.43;;;;;;;;;;5091644;28;20487;-70
2022/03/05 09:55:25;;;;;;;25.77;11.57;;;;;;;;;;5090364;28;20044;-70
2022/03/05 09:57:51;;;;;;;29.00;12.57;;;;;;;;;;5090974;28;20043;-70
2022/03/05 10:00:17;;;;;;;28.30;13.10;;;;;;;;;;5091189;28;20036;-70
2022/03/05 10:02:47;;;;;;;26.77;11.65;;;;;;;;;;5089874;28;20097;-70
2022/03/05 10:05:13;;;;;;;27.40;12.45;;;;;;;;;;5092236;28;20040;-70
2022/03/05 10:07:39;;;;;;;33.10;13.35;;;;;;;;;;5090914;28;20033;-70
2022/03/05 10:10:09;;;;;;;30.80;12.80;;;;;;;;;;5090275;28;20523;-70
2022/03/05 10:12:35;;;;;;;27.38;12.75;;;;;;;;;;5092325;28;20123;-70
2022/03/05 10:15:05;;;;;;;30.65;13.07;;;;;;;;;;5092229;28;20047;-69
2022/03/05 10:17:50;;;;;;;25.23;12.20;;;;;;;;;;5082775;28;20043;-69
2022/03/05 10:20:16;;;;;;;28.65;13.00;;;;;;;;;;5090830;28;20097;-69
2022/03/05 10:23:11;;;;;;;38.83;13.57;;;;;;;;;;5090335;28;20044;-70
2022/03/05 10:25:38;;;;;;;30.45;13.80;;;;;;;;;;5085405;28;20035;-70
2022/03/05 10:28:09;;;;;;;28.83;12.63;;;;;;;;;;5091791;28;20131;-70
2022/03/05 10:30:37;;;;;;;26.02;12.15;;;;;;;;;;5090485;28;20036;-70
2022/03/05 10:33:03;;;;;;;27.90;13.10;;;;;;;;;;5090018;28;20040;-70
2022/03/05 10:35:30;;;;;;;26.50;12.13;;;;;;;;;;5090267;28;20036;-70
2022/03/05 10:37:56;;;;;;;30.40;13.23;;;;;;;;;;5090613;28;20051;-70
2022/03/05 10:40:40;;;;;;;26.10;12.20;;;;;;;;;;5090381;28;20055;-69
2022/03/05 10:43:07;;;;;;;28.70;13.77;;;;;;;;;;5090120;28;20441;-69
2022/03/05 10:45:53;;;;;;;26.63;12.88;;;;;;;;;;5090434;28;20093;-69
2022/03/05 10:48:25;;;;;;;29.23;12.88;;;;;;;;;;5088775;28;20055;-69
2022/03/05 10:50:55;;;;;;;29.98;13.95;;;;;;;;;;5073333;28;20044;-69
2022/03/05 10:53:34;;;;;;;34.60;14.40;;;;;;;;;;5090259;28;20036;-69
2022/03/05 10:56:20;;;;;;;27.60;13.18;;;;;;;;;;5090761;28;20056;-69
2022/03/05 10:58:56;;;;;;;25.73;13.40;;;;;;;;;;5089959;28;20031;-69
2022/03/05 11:01:22;;;;;;;27.20;12.45;;;;;;;;;;5089932;28;20048;-69
2022/03/05 11:03:49;;;;;;;26.42;13.27;;;;;;;;;;5089299;28;20047;-69
2022/03/05 11:06:15;;;;;;;31.65;14.85;;;;;;;;;;5090125;28;20039;-69
2022/03/05 11:08:41;;;;;;;29.25;13.00;;;;;;;;;;5090187;28;20051;-69
2022/03/05 11:11:08;;;;;;;29.27;13.55;;;;;;;;;;5090485;28;20035;-69
2022/03/05 11:13:34;;;;;;;30.42;13.73;;;;;;;;;;5090000;28;20040;-69
2022/03/05 11:16:01;;;;;;;31.33;13.48;;;;;;;;;;5091600;28;20044;-69
2022/03/05 11:18:28;;;;;;;33.88;13.80;;;;;;;;;;5089371;28;20086;-69
2022/03/05 11:20:54;;;;;;;29.92;13.80;;;;;;;;;;5090186;28;20471;-69
2022/03/05 11:23:20;;;;;;;28.73;13.70;;;;;;;;;;5089926;28;20394;-69
2022/03/05 11:25:47;;;;;;;32.10;13.80;;;;;;;;;;5088973;28;20052;-69
2022/03/05 11:28:18;;;;;;;28.92;13.40;;;;;;;;;;5089900;28;20481;-69
2022/03/05 11:30:45;;;;;;;29.03;14.03;;;;;;;;;;5091237;28;20133;-69
2022/03/05 11:33:12;;;;;;;29.02;13.30;;;;;;;;;;5089092;28;20285;-69
2022/03/05 11:35:44;;;;;;;27.13;13.07;;;;;;;;;;5089728;28;20080;-69
2022/03/05 11:38:29;;;;;;;26.80;13.07;;;;;;;;;;5091276;28;20158;-69
2022/03/05 11:40:55;;;;;;;30.98;14.43;;;;;;;;;;5089563;28;20186;-70
2022/03/05 11:43:23;;;;;;;26.13;13.88;;;;;;;;;;5091070;28;20459;-70
2022/03/05 11:45:57;;;;;;;28.98;14.20;;;;;;;;;;5089779;28;20051;-70
2022/03/05 11:48:24;;;;;;;27.55;14.68;;;;;;;;;;5088133;28;20059;-70
2022/03/05 11:50:50;;;;;;;30.60;15.02;;;;;;;;;;5080605;28;20098;-70
2022/03/05 11:53:17;;;;;;;26.90;14.43;;;;;;;;;;5089794;28;20044;-70
2022/03/05 11:55:44;;;;;;;24.90;13.48;;;;;;;;;;5088854;28;20044;-70
2022/03/05 11:58:13;;;;;;;28.25;13.43;;;;;;;;;;5091094;28;20052;-70
2022/03/05 12:00:45;;;;;;;30.02;14.88;;;;;;;;;;5092969;28;20055;-70
2022/03/05 12:03:21;;;;;;;28.58;13.88;;;;;;;;;;5094494;28;20386;-70
2022/03/05 12:05:47;;;;;;;28.48;14.13;;;;;;;;;;5093182;28;20051;-70
2022/03/05 12:08:24;;;;;;;28.10;13.70;;;;;;;;;;5092718;28;20040;-70
2022/03/05 12:11:10;;;;;;;26.73;14.88;;;;;;;;;;5093084;28;20044;-70
2022/03/05 12:13:43;;;;;;;30.13;14.90;;;;;;;;;;5093650;28;20047;-69
2022/03/05 12:16:24;;;;;;;29.65;15.00;;;;;;;;;;5092564;28;20044;-70
2022/03/05 12:18:50;;;;;;;26.48;13.88;;;;;;;;;;5094709;28;20105;-70
2022/03/05 12:21:21;;;;;;;29.40;14.95;;;;;;;;;;5092992;28;20036;-70
2022/03/05 12:23:47;;;;;;;31.50;14.75;;;;;;;;;;5092176;28;20040;-70
2022/03/05 12:26:15;;;;;;;25.95;13.80;;;;;;;;;;5092628;28;20040;-70
2022/03/05 12:28:42;;;;;;;29.65;14.45;;;;;;;;;;5092677;28;20064;-70
2022/03/05 12:31:18;;;;;;;29.02;14.75;;;;;;;;;;5093600;28;20059;-70
2022/03/05 12:33:48;;;;;;;26.70;14.07;;;;;;;;;;5092736;28;20056;-70
2022/03/05 12:36:18;;;;;;;29.58;15.40;;;;;;;;;;5092691;28;20386;-70
2022/03/05 12:38:45;;;;;;;28.50;14.25;;;;;;;;;;5091923;28;20040;-70
2022/03/05 12:41:11;;;;;;;27.15;14.13;;;;;;;;;;5092625;28;20079;-70
2022/03/05 12:43:42;;;;;;;29.80;15.68;;;;;;;;;;5094011;28;20039;-70
2022/03/05 12:46:08;;;;;;;27.77;14.25;;;;;;;;;;5092047;28;20040;-70
2022/03/05 12:48:34;;;;;;;25.20;14.32;;;;;;;;;;5092696;28;20492;-70
2022/03/05 12:51:00;;;;;;;26.92;14.48;;;;;;;;;;5092658;28;20040;-70
2022/03/05 12:53:26;;;;;;;28.10;15.10;;;;;;;;;;5093455;28;20641;-70
2022/03/05 12:55:56;;;;;;;27.75;13.50;;;;;;;;;;5093771;28;20032;-70
2022/03/05 12:58:32;;;;;;;25.92;14.40;;;;;;;;;;5092232;28;20066;-70
2022/03/05 13:01:09;;;;;;;26.10;14.43;;;;;;;;;;5091710;28;20048;-70
2022/03/05 13:03:36;;;;;;;26.40;13.93;;;;;;;;;;5092114;28;20036;-70
2022/03/05 13:06:03;;;;;;;25.58;14.75;;;;;;;;;;5093494;28;20047;-71
2022/03/05 13:08:31;;;;;;;28.30;14.75;;;;;;;;;;5091652;28;20048;-71
2022/03/05 13:11:17;;;;;;;26.20;14.88;;;;;;;;;;5091681;28;20032;-71
2022/03/05 13:13:44;;;;;;;25.02;14.35;;;;;;;;;;5092202;28;20036;-70
2022/03/05 13:16:11;;;;;;;23.92;14.07;;;;;;;;;;5092558;28;20094;-70
2022/03/05 13:18:39;;;;;;;25.60;15.18;;;;;;;;;;5092047;28;20158;-70
2022/03/05 13:21:07;;;;;;;26.38;14.70;;;;;;;;;;5093436;28;20043;-70
2022/03/05 13:23:37;;;;;;;24.45;14.45;;;;;;;;;;5091286;28;20482;-71
2022/03/05 13:26:03;;;;;;;27.48;14.32;;;;;;;;;;5093044;28;20036;-71
2022/03/05 13:28:30;;;;;;;27.27;15.40;;;;;;;;;;5092839;28;20046;-71
2022/03/05 13:30:57;;;;;;;28.08;15.10;;;;;;;;;;5091065;28;20486;-71
2022/03/05 13:33:34;;;;;;;28.70;16.83;;;;;;;;;;5091688;28;20044;-71
2022/03/05 13:36:00;;;;;;;25.05;15.35;;;;;;;;;;5092951;28;20040;-70
2022/03/05 13:38:27;;;;;;;26.17;14.65;;;;;;;;;;5092225;28;20086;-70
2022/03/05 13:40:53;;;;;;;26.45;15.55;;;;;;;;;;5091740;28;20550;-70
2022/03/05 13:43:23;;;;;;;28.05;15.38;;;;;;;;;;5091077;28;20127;-70
2022/03/05 13:45:50;;;;;;;27.10;15.13;;;;;;;;;;5091975;28;20036;-70
2022/03/05 13:48:16;;;;;;;26.05;14.82;;;;;;;;;;5092441;28;20119;-70
2022/03/05 13:50:43;;;;;;;29.60;15.98;;;;;;;;;;5091325;28;20123;-70
2022/03/05 13:53:09;;;;;;;27.98;15.63;;;;;;;;;;5090973;28;20040;-70
2022/03/05 13:55:35;;;;;;;27.75;15.00;;;;;;;;;;5091135;28;20474;-70
2022/03/05 13:58:01;;;;;;;30.08;16.33;;;;;;;;;;5092524;28;20101;-70
2022/03/05 14:00:29;;;;;;;29.10;15.95;;;;;;;;;;5090482;28;20044;-70
2022/03/05 14:02:55;;;;;;;26.42;15.63;;;;;;;;;;5090751;28;20055;-70
2022/03/05 14:05:23;;;;;;;26.30;15.52;;;;;;;;;;5092616;28;20067;-70
2022/03/05 14:07:57;;;;;;;29.55;16.52;;;;;;;;;;5091722;28;20070;-70
2022/03/05 14:10:23;;;;;;;28.90;15.68;;;;;;;;;;5090792;28;20101;-70
2022/03/05 14:12:54;;;;;;;26.05;15.27;;;;;;;;;;5091180;28;20056;-70
2022/03/05 14:15:24;;;;;;;28.35;16.27;;;;;;;;;;5091710;28;20048;-70
2022/03/05 14:18:00;;;;;;;25.15;15.25;;;;;;;;;;5092336;28;20592;-70
2022/03/05 14:20:28;;;;;;;27.73;15.80;;;;;;;;;;5092280;28;20040;-70
2022/03/05 14:23:04;;;;;;;26.75;15.52;;;;;;;;;;5072732;28;20608;-70
2022/03/05 14:25:31;;;;;;;28.33;16.15;;;;;;;;;;5090452;28;20097;-70
2022/03/05 14:27:59;;;;;;;24.15;15.23;;;;;;;;;;5074628;28;20050;-70
2022/03/05 14:30:26;;;;;;;27.63;15.80;;;;;;;;;;5073798;28;20040;-70